Miles City, MT (59301)

8:20 PM MST on February 12, 2016 (GMT -0700)
Wiley | | Change Station
CLOSE
Current Station
Airport
Location: Miles City,
Elevation: 2628 ft
Nearby Weather Stations

Elev 2628 ft 46.43 °N, 105.88 °W | Updated 27 minutes ago

Overcast
Overcast
31 °F
Feels Like 22 °F
N
12
Wind Variable Wind from ESE

Today
High -- | Low -- °F
--% Chance of Precip.
Yesterday
High -- | Low -- °F
Precip. -- in
Pressure 30.27 in
Visibility 6.0 miles
Clouds Few 3700 ft
Overcast 4700 ft
Windchill 22 °F
Dew Point 27 °F
Humidity 85%
Rainfall 0.00 in
Snow Depth Not available.
7:12 AM 5:23 PM
Waxing Crescent, 26% visible
METAR KMLS 130253Z AUTO 12010KT 6SM BR FEW037 OVC047 M01/M03 A3018 RMK AO2 SNB10E50 SLP249 P0000 60000 T10061028 56015
Pressure 30.27 in
Visibility 6.0 miles
Clouds Few 3700 ft
Overcast 4700 ft
Windchill 22 °F
Dew Point 27 °F
Humidity 85%
Rainfall 0.00 in
Snow Depth Not available.
7:12 AM 5:23 PM
Waxing Crescent, 26% visible
METAR KMLS 130253Z AUTO 12010KT 6SM BR FEW037 OVC047 M01/M03 A3018 RMK AO2 SNB10E50 SLP249 P0000 60000 T10061028 56015

10-Day Weather Forecast

Almanac

Astronomy

Feb. 12, 2016 Rise Set
Actual Time
Civil Twilight
Nautical Twilight
Astronomical Twilight
Moon
Length of Visible Light
Length of Day
Tomorrow will be .
, % of the Moon is Illuminated

Today's Extremes

State Highs State Lows

Community

WunderPhotos

Upload Photos

1,892,480 photos uploaded!

WunderBlog® & News

Nearby

Air Quality

  Air Quality AQ Index Pollutant
Not available.

Snow Depth

Station Depth Elevation

Earthquake Activity

City Distance Mag. Time & Date
Minimum magnitude displayed is 2.5.

Coastal Water Temperatures

Place Temperature

Stations

Nearby Weather Stations

Station Location Temp. Windchill Dew Point Humidity Wind Precip. Elev Updated Type
                   

Watches & Warnings

There are currently no watches in effect.